createdAt,value
2019-03-17T00:00:48.310Z,10.83
2019-03-17T00:03:19.917Z,10.76
2019-03-17T00:05:52.101Z,10.65
2019-03-17T00:08:23.708Z,10.59
2019-03-17T00:10:55.327Z,10.54
2019-03-17T00:13:26.942Z,10.42
2019-03-17T00:15:58.572Z,10.27
2019-03-17T00:18:30.249Z,10.11
2019-03-17T00:21:02.232Z,9.98
2019-03-17T00:23:33.826Z,9.88
2019-03-17T00:26:05.676Z,9.81
2019-03-17T00:28:37.348Z,9.74
2019-03-17T00:31:09.015Z,9.66
2019-03-17T00:33:40.794Z,9.61
2019-03-17T00:36:12.806Z,9.60
2019-03-17T00:38:44.420Z,9.61
2019-03-17T00:41:16.074Z,9.64
2019-03-17T00:43:47.675Z,9.65
2019-03-17T00:46:19.301Z,9.61
2019-03-17T00:48:50.995Z,9.57
2019-03-17T00:51:22.883Z,9.51
2019-03-17T00:53:54.833Z,9.48
2019-03-17T00:56:26.521Z,9.47
2019-03-17T00:58:58.154Z,9.47
2019-03-17T01:01:29.981Z,9.51
2019-03-17T01:04:01.701Z,9.56
2019-03-17T01:06:33.403Z,9.54
2019-03-17T01:09:06.567Z,9.56
2019-03-17T01:11:38.160Z,9.59
2019-03-17T01:14:10.332Z,9.62
2019-03-17T01:16:42.026Z,9.65
2019-03-17T01:19:13.679Z,9.66
2019-03-17T01:21:45.331Z,9.68
2019-03-17T01:24:17.230Z,9.70
2019-03-17T01:26:49.095Z,9.72
2019-03-17T01:29:20.750Z,9.68
2019-03-17T01:31:52.409Z,9.70
2019-03-17T01:34:24.093Z,9.61
2019-03-17T01:36:55.756Z,9.52
2019-03-17T01:39:27.356Z,9.48
2019-03-17T01:41:58.981Z,9.48
2019-03-17T01:44:30.890Z,9.50
2019-03-17T01:47:02.465Z,9.53
2019-03-17T01:49:34.108Z,9.53
2019-03-17T01:52:05.684Z,9.54
2019-03-17T01:54:37.348Z,9.55
2019-03-17T01:57:08.944Z,9.56
2019-03-17T01:59:40.997Z,9.56
2019-03-17T02:02:12.564Z,9.56
2019-03-17T02:04:44.385Z,9.56
2019-03-17T02:07:16.048Z,9.52
2019-03-17T02:09:47.668Z,9.48
2019-03-17T02:12:19.227Z,9.42
2019-03-17T02:14:51.292Z,9.34
2019-03-17T02:17:22.903Z,9.29
2019-03-17T02:19:54.539Z,9.24
2019-03-17T02:22:26.231Z,9.31
2019-03-17T02:24:57.980Z,9.34
2019-03-17T02:27:29.545Z,9.35
2019-03-17T02:30:01.301Z,9.35
2019-03-17T02:32:33.421Z,9.37
2019-03-17T02:35:05.766Z,9.36
2019-03-17T02:37:37.413Z,9.32
2019-03-17T02:40:09.024Z,9.26
2019-03-17T02:42:40.785Z,9.18
2019-03-17T02:45:12.874Z,9.09
2019-03-17T02:47:44.930Z,9.03
2019-03-17T02:50:16.535Z,9.00
2019-03-17T02:52:48.140Z,8.97
2019-03-17T02:55:19.850Z,8.90
2019-03-17T02:57:51.615Z,8.80
2019-03-17T03:00:23.220Z,8.75
2019-03-17T03:02:55.544Z,8.73
2019-03-17T03:05:27.108Z,8.67
2019-03-17T03:07:58.776Z,8.63
2019-03-17T03:10:32.018Z,8.57
2019-03-17T03:13:03.814Z,8.52
2019-03-17T03:15:35.390Z,8.51
2019-03-17T03:18:07.455Z,8.53
2019-03-17T03:20:39.075Z,8.54
2019-03-17T03:23:10.677Z,8.54
2019-03-17T03:25:42.445Z,8.49
2019-03-17T03:28:14.171Z,8.47
2019-03-17T03:30:45.721Z,8.46
2019-03-17T03:33:18.007Z,8.47
2019-03-17T03:35:49.603Z,8.48
2019-03-17T03:38:21.182Z,8.46
2019-03-17T03:40:52.912Z,8.41
2019-03-17T03:43:24.525Z,8.39
2019-03-17T03:45:56.173Z,8.39
2019-03-17T03:48:27.802Z,8.35
2019-03-17T03:51:00.081Z,8.33
2019-03-17T03:53:31.721Z,8.28
2019-03-17T03:56:03.533Z,8.25
2019-03-17T03:58:35.148Z,8.21
2019-03-17T04:01:06.835Z,8.16
2019-03-17T04:03:38.484Z,8.13
2019-03-17T04:06:25.194Z,8.13
2019-03-17T04:08:44.019Z,8.13
2019-03-17T04:11:15.645Z,8.11
2019-03-17T04:13:47.196Z,8.04
2019-03-17T04:16:18.777Z,7.97
2019-03-17T04:18:50.438Z,7.97
2019-03-17T04:21:22.843Z,7.98
2019-03-17T04:23:54.501Z,8.00
2019-03-17T04:26:26.565Z,8.02
2019-03-17T04:28:58.167Z,8.06
2019-03-17T04:31:29.799Z,8.09
2019-03-17T04:34:01.560Z,8.07
2019-03-17T04:36:40.248Z,8.08
2019-03-17T04:39:08.868Z,8.03
2019-03-17T04:41:40.465Z,7.91
2019-03-17T04:44:20.814Z,7.80
2019-03-17T04:46:45.414Z,7.71
2019-03-17T04:49:17.000Z,7.66
2019-03-17T04:51:48.786Z,7.66
2019-03-17T04:54:20.775Z,7.68
2019-03-17T04:56:52.798Z,7.72
2019-03-17T04:59:24.371Z,7.76
2019-03-17T05:01:56.058Z,7.80
2019-03-17T05:04:27.729Z,7.82
2019-03-17T05:06:59.334Z,7.84
2019-03-17T05:09:30.927Z,7.85
2019-03-17T05:12:02.933Z,7.86
2019-03-17T05:14:34.628Z,7.88
2019-03-17T05:17:06.254Z,7.87
2019-03-17T05:19:37.852Z,7.87
2019-03-17T05:22:09.509Z,7.82
2019-03-17T05:24:41.425Z,7.76
2019-03-17T05:27:13.543Z,7.71
2019-03-17T05:29:45.137Z,7.67
2019-03-17T05:32:16.767Z,7.64
2019-03-17T05:34:48.352Z,7.62
2019-03-17T05:37:19.973Z,7.59
2019-03-17T05:39:51.674Z,7.61
2019-03-17T05:42:23.249Z,7.58
2019-03-17T05:44:55.183Z,7.58
2019-03-17T05:47:26.851Z,7.58
2019-03-17T05:49:58.722Z,7.65
2019-03-17T05:52:30.310Z,7.69
2019-03-17T05:55:02.031Z,7.76
2019-03-17T05:57:33.708Z,7.81
2019-03-17T06:00:06.321Z,7.85
2019-03-17T06:02:37.914Z,7.89
2019-03-17T06:05:10.333Z,7.93
2019-03-17T06:07:41.931Z,7.98
2019-03-17T06:10:13.748Z,8.01
2019-03-17T06:12:45.698Z,8.05
2019-03-17T06:15:17.825Z,8.12
2019-03-17T06:17:49.615Z,8.17
2019-03-17T06:20:21.326Z,8.22
2019-03-17T06:22:52.906Z,8.28
2019-03-17T06:25:24.645Z,8.33
2019-03-17T06:27:56.516Z,8.39
2019-03-17T06:30:28.885Z,8.46
2019-03-17T06:33:00.657Z,8.55
2019-03-17T06:35:32.267Z,8.62
2019-03-17T06:38:03.887Z,8.71
2019-03-17T06:40:35.499Z,8.78
2019-03-17T06:43:07.351Z,8.86
2019-03-17T06:45:39.592Z,8.97
2019-03-17T06:48:11.207Z,9.08
2019-03-17T06:50:42.863Z,9.24
2019-03-17T06:53:14.641Z,9.44
2019-03-17T06:55:46.415Z,9.65
2019-03-17T06:58:18.018Z,9.90
2019-03-17T07:00:50.538Z,10.10
2019-03-17T07:03:22.161Z,10.29
2019-03-17T07:05:54.075Z,10.48
2019-03-17T07:08:25.674Z,10.69
2019-03-17T07:10:57.405Z,10.92
2019-03-17T07:13:29.048Z,11.13
2019-03-17T07:16:01.331Z,11.31
2019-03-17T07:18:32.969Z,11.48
2019-03-17T07:21:04.675Z,11.62
2019-03-17T07:23:36.318Z,11.75
2019-03-17T07:26:08.514Z,11.88
2019-03-17T07:28:40.145Z,12.02
2019-03-17T07:31:11.884Z,12.14
2019-03-17T07:33:44.110Z,12.23
2019-03-17T07:36:15.706Z,12.31
2019-03-17T07:38:47.367Z,12.40
2019-03-17T07:41:18.982Z,12.48
2019-03-17T07:43:50.601Z,12.58
2019-03-17T07:46:22.212Z,12.68
2019-03-17T07:48:54.218Z,12.81
2019-03-17T07:51:25.936Z,12.93
2019-03-17T07:53:57.587Z,13.05
2019-03-17T07:56:29.291Z,13.18
2019-03-17T07:59:00.997Z,13.30
2019-03-17T08:01:32.700Z,13.41
2019-03-17T08:04:05.157Z,13.52
2019-03-17T08:06:36.774Z,13.62
2019-03-17T08:09:09.645Z,13.75
2019-03-17T08:11:41.292Z,13.83
2019-03-17T08:14:12.940Z,13.94
2019-03-17T08:16:44.622Z,14.04
2019-03-17T08:19:16.943Z,14.14
2019-03-17T08:21:48.600Z,14.24
2019-03-17T08:24:20.210Z,14.33
2019-03-17T08:26:52.083Z,14.40
2019-03-17T08:29:23.915Z,14.48
2019-03-17T08:31:55.586Z,14.55
2019-03-17T08:34:27.892Z,14.59
2019-03-17T08:36:59.577Z,14.66
2019-03-17T08:39:31.309Z,14.74
2019-03-17T08:42:02.994Z,14.80
2019-03-17T08:44:34.846Z,14.90
2019-03-17T08:47:06.573Z,14.98
2019-03-17T08:49:38.865Z,15.07
2019-03-17T08:52:10.658Z,15.14
2019-03-17T08:54:42.327Z,15.21
2019-03-17T08:57:14.018Z,15.28
2019-03-17T08:59:45.830Z,15.35
2019-03-17T09:02:17.530Z,15.44
2019-03-17T09:04:49.453Z,15.52
2019-03-17T09:07:21.895Z,15.61
2019-03-17T09:09:53.521Z,15.67
2019-03-17T09:12:25.476Z,15.74
2019-03-17T09:14:57.192Z,15.84
2019-03-17T09:17:28.908Z,15.92
2019-03-17T09:20:00.662Z,16.04
2019-03-17T09:22:33.120Z,16.11
2019-03-17T09:25:04.977Z,16.20
2019-03-17T09:27:36.814Z,16.26
2019-03-17T09:30:10.866Z,16.31
2019-03-17T09:32:42.688Z,16.39
2019-03-17T09:35:14.467Z,16.43
2019-03-17T09:37:46.871Z,16.49
2019-03-17T09:40:18.535Z,16.56
2019-03-17T09:42:50.284Z,16.63
2019-03-17T09:45:22.069Z,16.71
2019-03-17T09:47:53.730Z,16.81
2019-03-17T09:50:25.419Z,16.91
2019-03-17T09:52:57.869Z,17.00
2019-03-17T09:55:29.505Z,17.07
2019-03-17T09:58:01.177Z,17.10
2019-03-17T10:00:32.902Z,17.17
2019-03-17T10:03:04.557Z,17.22
2019-03-17T10:05:36.247Z,17.26
2019-03-17T10:08:08.391Z,17.30
2019-03-17T10:10:40.118Z,17.27
2019-03-17T10:13:11.855Z,17.24
2019-03-17T10:15:43.518Z,17.19
2019-03-17T10:18:15.501Z,17.17
2019-03-17T10:20:47.178Z,17.15
2019-03-17T10:23:19.559Z,17.11
2019-03-17T10:25:50.450Z,17.13
2019-03-17T10:28:19.718Z,17.19
2019-03-17T10:30:51.482Z,17.31
2019-03-17T10:33:23.400Z,17.49
2019-03-17T10:35:55.068Z,17.67
2019-03-17T10:38:26.839Z,17.82
2019-03-17T10:40:59.006Z,17.96
2019-03-17T10:43:30.659Z,18.04
2019-03-17T10:46:02.337Z,18.08
2019-03-17T10:48:34.062Z,18.03
2019-03-17T10:51:05.791Z,17.95
2019-03-17T10:53:37.455Z,17.91
2019-03-17T10:56:09.760Z,17.91
2019-03-17T10:58:41.463Z,17.96
2019-03-17T11:01:13.206Z,17.99
2019-03-17T11:03:45.270Z,18.00
2019-03-17T11:06:17.068Z,18.00
2019-03-17T11:08:48.785Z,17.99
2019-03-17T11:11:21.114Z,18.02
2019-03-17T11:13:52.773Z,18.03
2019-03-17T11:16:24.455Z,18.05
2019-03-17T11:18:56.319Z,18.12
2019-03-17T11:21:28.216Z,18.21
2019-03-17T11:23:59.893Z,18.29
2019-03-17T11:26:32.545Z,18.38
2019-03-17T11:29:04.240Z,18.43
2019-03-17T11:31:35.936Z,18.47
2019-03-17T11:34:07.615Z,18.53
2019-03-17T11:36:39.404Z,18.56
2019-03-17T11:39:11.070Z,18.61
2019-03-17T11:41:43.455Z,18.63
2019-03-17T11:44:15.198Z,18.67
2019-03-17T11:46:46.925Z,18.65
2019-03-17T11:49:18.660Z,18.58
2019-03-17T11:51:50.345Z,18.50
2019-03-17T11:54:22.394Z,18.47
2019-03-17T11:56:55.081Z,18.45
2019-03-17T11:59:27.052Z,18.40
2019-03-17T12:01:59.159Z,18.37
2019-03-17T12:04:32.345Z,18.29
2019-03-17T12:07:04.063Z,18.13
2019-03-17T12:09:35.917Z,18.00
2019-03-17T12:12:07.785Z,17.93
2019-03-17T12:14:40.186Z,17.81
2019-03-17T12:17:11.948Z,17.62
2019-03-17T12:19:43.644Z,17.44
2019-03-17T12:22:15.272Z,17.26
2019-03-17T12:24:47.518Z,17.11
2019-03-17T12:27:19.614Z,16.97
2019-03-17T12:29:54.846Z,16.79
2019-03-17T12:32:26.794Z,16.61
2019-03-17T12:34:58.664Z,16.48
2019-03-17T12:37:30.353Z,16.38
2019-03-17T12:40:03.039Z,16.28
2019-03-17T12:42:35.964Z,16.17
2019-03-17T12:45:09.383Z,16.03
2019-03-17T12:47:41.069Z,15.84
2019-03-17T12:50:14.024Z,15.63
2019-03-17T12:52:45.984Z,15.41
2019-03-17T12:55:17.672Z,15.17
2019-03-17T12:57:49.419Z,14.95
2019-03-17T13:00:22.766Z,14.76
2019-03-17T13:02:55.093Z,14.61
2019-03-17T13:05:26.829Z,14.46
2019-03-17T13:07:58.700Z,14.33
2019-03-17T13:10:30.576Z,14.20
2019-03-17T13:13:02.310Z,14.04
2019-03-17T13:15:34.717Z,13.87
2019-03-17T13:18:06.473Z,13.72
2019-03-17T13:20:38.716Z,13.55
2019-03-17T13:23:10.400Z,13.42
2019-03-17T13:25:42.641Z,13.33
2019-03-17T13:28:14.390Z,13.28
2019-03-17T13:30:46.631Z,13.22
2019-03-17T13:33:18.324Z,13.09
2019-03-17T13:35:50.350Z,12.90
2019-03-17T13:38:22.143Z,12.76
2019-03-17T13:40:54.557Z,12.69
2019-03-17T13:43:26.307Z,12.61
2019-03-17T13:45:58.604Z,12.55
2019-03-17T13:48:30.369Z,12.52
2019-03-17T13:51:02.145Z,12.50
2019-03-17T13:53:34.021Z,12.48
2019-03-17T13:56:05.784Z,12.50
2019-03-17T13:58:37.569Z,12.51
2019-03-17T14:01:09.215Z,12.54
2019-03-17T14:03:41.517Z,12.57
2019-03-17T14:06:13.251Z,12.58
2019-03-17T14:08:46.337Z,12.54
2019-03-17T14:11:18.333Z,12.52
2019-03-17T14:13:50.350Z,12.48
2019-03-17T14:16:22.051Z,12.51
2019-03-17T14:18:54.519Z,12.51
2019-03-17T14:21:26.261Z,12.49
2019-03-17T14:23:58.040Z,12.48
2019-03-17T14:26:29.035Z,12.51
2019-03-17T14:28:58.296Z,12.55
2019-03-17T14:31:29.997Z,12.60
2019-03-17T14:34:02.492Z,12.62
2019-03-17T14:36:34.201Z,12.67
2019-03-17T14:39:07.298Z,12.69
2019-03-17T14:41:39.155Z,12.72
2019-03-17T14:44:10.884Z,12.76
2019-03-17T14:46:42.657Z,12.81
2019-03-17T14:49:15.211Z,12.85
2019-03-17T14:51:46.996Z,12.83
2019-03-17T14:54:18.894Z,12.78
2019-03-17T14:56:50.692Z,12.74
2019-03-17T14:59:22.396Z,12.76
2019-03-17T15:01:54.266Z,12.76
2019-03-17T15:04:26.734Z,12.73
2019-03-17T15:06:58.443Z,12.68
2019-03-17T15:09:30.251Z,12.65
2019-03-17T15:12:01.972Z,12.54
2019-03-17T15:14:33.905Z,12.52
2019-03-17T15:17:05.663Z,12.50
2019-03-17T15:19:38.228Z,12.50
2019-03-17T15:22:09.876Z,12.48
2019-03-17T15:24:41.590Z,12.43
2019-03-17T15:27:13.742Z,12.39
2019-03-17T15:29:45.635Z,12.34
2019-03-17T15:32:17.599Z,12.29
2019-03-17T15:34:49.726Z,12.26
2019-03-17T15:37:21.858Z,12.25
2019-03-17T15:39:53.671Z,12.22
2019-03-17T15:42:25.838Z,12.20
2019-03-17T15:44:57.569Z,12.18
2019-03-17T15:47:29.306Z,12.16
2019-03-17T15:50:01.427Z,12.13
2019-03-17T15:52:33.560Z,12.08
2019-03-17T15:55:05.888Z,12.06
2019-03-17T15:57:37.741Z,12.06
2019-03-17T16:00:24.838Z,12.05
2019-03-17T16:02:49.936Z,12.00
2019-03-17T16:05:21.789Z,12.05
2019-03-17T16:07:53.961Z,12.07
2019-03-17T16:10:26.033Z,12.05
2019-03-17T16:12:57.837Z,12.00
2019-03-17T16:15:29.509Z,11.96
2019-03-17T16:18:01.265Z,11.89
2019-03-17T16:20:33.463Z,11.84
2019-03-17T16:23:05.747Z,11.79
2019-03-17T16:25:37.741Z,11.74
2019-03-17T16:28:09.655Z,11.71
2019-03-17T16:30:41.609Z,11.69
2019-03-17T16:33:13.478Z,11.66
2019-03-17T16:35:46.358Z,11.65
2019-03-17T16:38:19.015Z,11.64
2019-03-17T16:40:50.992Z,11.63
2019-03-17T16:43:22.824Z,11.64
2019-03-17T16:45:54.589Z,11.62
2019-03-17T16:48:26.316Z,11.61
2019-03-17T16:50:58.033Z,11.59
2019-03-17T16:53:30.443Z,11.60
2019-03-17T16:56:02.167Z,11.58
2019-03-17T16:58:34.013Z,11.55
2019-03-17T17:01:06.055Z,11.55
2019-03-17T17:03:37.911Z,11.54
2019-03-17T17:06:09.829Z,11.57
2019-03-17T17:08:42.351Z,11.58
2019-03-17T17:11:14.170Z,11.56
2019-03-17T17:13:45.915Z,11.56
2019-03-17T17:16:17.798Z,11.56
2019-03-17T17:18:49.688Z,11.57
2019-03-17T17:21:21.549Z,11.55
2019-03-17T17:23:54.134Z,11.56
2019-03-17T17:26:36.563Z,11.56
2019-03-17T17:28:56.397Z,11.56
2019-03-17T17:31:30.205Z,11.55
2019-03-17T17:34:02.266Z,11.56
2019-03-17T17:36:34.359Z,11.54
2019-03-17T17:39:09.571Z,11.51
2019-03-17T17:41:41.915Z,11.45
2019-03-17T17:44:13.777Z,11.39
2019-03-17T17:46:46.056Z,11.38
2019-03-17T17:49:18.195Z,11.38
2019-03-17T17:51:50.156Z,11.37
2019-03-17T17:54:22.205Z,11.36
2019-03-17T17:56:54.143Z,11.31
2019-03-17T17:59:26.013Z,11.25
2019-03-17T18:01:58.542Z,11.17
2019-03-17T18:04:30.403Z,11.18
2019-03-17T18:07:02.352Z,11.14
2019-03-17T18:09:34.302Z,11.09
2019-03-17T18:12:06.223Z,11.02
2019-03-17T18:14:38.204Z,10.95
2019-03-17T18:17:10.790Z,10.87
2019-03-17T18:19:42.660Z,10.79
2019-03-17T18:22:14.523Z,10.70
2019-03-17T18:24:46.344Z,10.61
2019-03-17T18:27:18.423Z,10.54
2019-03-17T18:29:50.410Z,10.46
2019-03-17T18:32:22.911Z,10.39
2019-03-17T18:34:55.332Z,10.33
2019-03-17T18:37:27.131Z,10.25
2019-03-17T18:39:59.081Z,10.19
2019-03-17T18:42:33.252Z,10.15
2019-03-17T18:45:04.943Z,10.13
2019-03-17T18:47:37.530Z,10.11
2019-03-17T18:50:19.494Z,10.09
2019-03-17T18:52:43.887Z,10.07
2019-03-17T18:55:15.935Z,10.05
2019-03-17T18:57:48.099Z,10.02
2019-03-17T19:00:19.949Z,9.99
2019-03-17T19:02:52.568Z,9.96
2019-03-17T19:05:24.471Z,9.93
2019-03-17T19:07:56.433Z,9.87
2019-03-17T19:10:28.457Z,9.84
2019-03-17T19:13:00.371Z,9.82
2019-03-17T19:15:32.220Z,9.82
2019-03-17T19:18:04.119Z,9.82
2019-03-17T19:20:36.339Z,9.79
2019-03-17T19:23:08.156Z,9.78
2019-03-17T19:25:39.933Z,9.79
2019-03-17T19:28:12.113Z,9.78
2019-03-17T19:30:44.147Z,9.76
2019-03-17T19:33:16.028Z,9.73
2019-03-17T19:35:48.570Z,9.70
2019-03-17T19:38:20.576Z,9.67
2019-03-17T19:40:52.420Z,9.64
2019-03-17T19:43:24.480Z,9.62
2019-03-17T19:45:56.340Z,9.61
2019-03-17T19:48:28.032Z,9.61
2019-03-17T19:51:00.889Z,9.60
2019-03-17T19:53:32.601Z,9.59
2019-03-17T19:56:04.670Z,9.55
2019-03-17T19:58:36.431Z,9.53
2019-03-17T20:01:08.421Z,9.51
2019-03-17T20:03:40.412Z,9.50
2019-03-17T20:06:12.983Z,9.48
2019-03-17T20:08:44.944Z,9.47
2019-03-17T20:11:16.783Z,9.48
2019-03-17T20:13:48.787Z,9.47
2019-03-17T20:16:20.664Z,9.45
2019-03-17T20:18:52.771Z,9.43
2019-03-17T20:21:25.310Z,9.43
2019-03-17T20:23:57.069Z,9.45
2019-03-17T20:26:28.784Z,9.43
2019-03-17T20:29:00.785Z,9.40
2019-03-17T20:31:32.815Z,9.39
2019-03-17T20:34:04.548Z,9.37
2019-03-17T20:36:36.419Z,9.32
2019-03-17T20:39:09.571Z,9.29
2019-03-17T20:41:41.298Z,9.26
2019-03-17T20:44:13.232Z,9.23
2019-03-17T20:46:45.433Z,9.21
2019-03-17T20:49:17.564Z,9.18
2019-03-17T20:51:49.509Z,9.17
2019-03-17T20:54:22.157Z,9.16
2019-03-17T20:56:54.183Z,9.15
2019-03-17T20:59:26.379Z,9.15
2019-03-17T21:01:58.275Z,9.14
2019-03-17T21:04:30.413Z,9.11
2019-03-17T21:07:02.500Z,9.07
2019-03-17T21:09:35.309Z,9.05
2019-03-17T21:12:07.123Z,9.03
2019-03-17T21:14:38.952Z,8.99
2019-03-17T21:17:10.722Z,8.92
2019-03-17T21:19:42.764Z,8.89
2019-03-17T21:22:14.529Z,8.86
2019-03-17T21:24:47.001Z,8.82
2019-03-17T21:27:18.880Z,8.80
2019-03-17T21:29:50.652Z,8.77
2019-03-17T21:32:22.409Z,8.78
2019-03-17T21:34:54.289Z,8.76
2019-03-17T21:37:26.196Z,8.72
2019-03-17T21:39:58.551Z,8.68
2019-03-17T21:42:30.348Z,8.64
2019-03-17T21:45:02.081Z,8.59
2019-03-17T21:47:33.766Z,8.57
2019-03-17T21:50:06.948Z,8.53
2019-03-17T21:52:38.586Z,8.47
2019-03-17T21:55:11.222Z,8.43
2019-03-17T21:57:43.041Z,8.41
2019-03-17T22:00:16.207Z,8.40
2019-03-17T22:02:47.924Z,8.36
2019-03-17T22:05:19.736Z,8.32
2019-03-17T22:07:51.764Z,8.31
2019-03-17T22:10:24.123Z,8.30
2019-03-17T22:12:55.974Z,8.27
2019-03-17T22:15:27.737Z,8.26
2019-03-17T22:17:59.439Z,8.22
2019-03-17T22:20:31.266Z,8.19
2019-03-17T22:23:03.038Z,8.17
2019-03-17T22:25:34.768Z,8.15
2019-03-17T22:28:08.625Z,8.13
2019-03-17T22:30:40.566Z,8.12
2019-03-17T22:33:12.771Z,8.11
2019-03-17T22:35:44.541Z,8.11
2019-03-17T22:38:16.354Z,8.09
2019-03-17T22:40:48.050Z,8.08
2019-03-17T22:43:20.411Z,8.08
2019-03-17T22:45:52.159Z,8.06
2019-03-17T22:48:23.819Z,8.06
2019-03-17T22:50:55.586Z,8.04
2019-03-17T22:53:27.300Z,8.03
2019-03-17T22:55:58.998Z,8.02
2019-03-17T22:58:31.446Z,8.02
2019-03-17T23:01:03.324Z,8.03
2019-03-17T23:03:34.945Z,8.03
2019-03-17T23:06:06.678Z,8.04
2019-03-17T23:08:38.332Z,8.04
2019-03-17T23:11:10.006Z,8.06
2019-03-17T23:13:42.368Z,8.07
2019-03-17T23:16:14.011Z,8.08
2019-03-17T23:18:46.688Z,8.06
2019-03-17T23:21:18.363Z,8.07
2019-03-17T23:23:50.011Z,8.07
2019-03-17T23:26:21.631Z,8.08
2019-03-17T23:28:54.166Z,8.11
2019-03-17T23:31:25.813Z,8.13
2019-03-17T23:33:57.445Z,8.15
2019-03-17T23:36:29.072Z,8.18
2019-03-17T23:39:00.811Z,8.19
2019-03-17T23:41:32.416Z,8.20
2019-03-17T23:44:04.674Z,8.20
2019-03-17T23:46:36.284Z,8.20
2019-03-17T23:49:07.940Z,8.19
2019-03-17T23:51:39.551Z,8.21
2019-03-17T23:54:11.157Z,8.21
2019-03-17T23:56:42.769Z,8.20
2019-03-17T23:59:14.389Z,8.20
